Terminal Aerodrome Forecast
Issued by NWS

Home | Current Version | Previous Version | Text Only | Print | Product List | Glossary On
Versions: 1 2 3 4 5 6 7 8 9 10 11 12 13 14 15 16
959
FTUS43 KAPX 072330
TAFPLN
TAF
KPLN 072330Z 0800/0824 17004KT P6SM OVC035
     FM080100 00000KT P6SM OVC025
     FM080330 00000KT 5SM BR OVC012
     FM080900 00000KT 3SM BR OVC007
     FM081500 VRB02KT 6SM BR OVC015
     FM082200 27003KT 3SM BR OVC007=

USA.gov is the U.S. government's official web portal to all federal, state and local government web resources and services.